createdAt,value
2018-04-19T00:04:17.735Z,100958.13
2018-04-19T00:10:22.113Z,100955.86
2018-04-19T00:16:26.488Z,100961.81
2018-04-19T00:22:30.889Z,100956.55
2018-04-19T00:28:35.265Z,100956.73
2018-04-19T00:34:39.818Z,100951.45
2018-04-19T00:40:44.540Z,100947.20
2018-04-19T00:46:48.999Z,100945.59
2018-04-19T00:53:09.417Z,100951.30
2018-04-19T00:59:14.000Z,100947.61
2018-04-19T01:05:18.377Z,100940.94
2018-04-19T01:11:22.778Z,100936.77
2018-04-19T01:17:27.156Z,100933.14
2018-04-19T01:23:31.649Z,100933.73
2018-04-19T01:29:36.014Z,100926.73
2018-04-19T01:35:58.188Z,100930.92
2018-04-19T01:42:02.613Z,100926.55
2018-04-19T01:48:06.999Z,100927.03
2018-04-19T01:54:13.087Z,100918.87
2018-04-19T02:00:18.273Z,100922.64
2018-04-19T02:06:22.650Z,100920.59
2018-04-19T02:12:27.096Z,100922.70
2018-04-19T02:18:31.476Z,100921.72
2018-04-19T02:24:35.849Z,100909.98
2018-04-19T02:30:40.303Z,100918.95
2018-04-19T02:36:45.550Z,100911.73
2018-04-19T02:42:50.157Z,100908.66
2018-04-19T02:48:54.573Z,100909.10
2018-04-19T02:54:58.959Z,100891.89
2018-04-19T03:01:03.344Z,100891.63
2018-04-19T03:07:07.765Z,100885.08
2018-04-19T03:13:12.383Z,100881.31
2018-04-19T03:19:16.746Z,100879.84
2018-04-19T03:25:21.150Z,100879.80
2018-04-19T03:31:25.542Z,100880.49
2018-04-19T03:37:30.075Z,100874.31
2018-04-19T03:43:34.439Z,100871.60
2018-04-19T03:49:39.858Z,100873.19
2018-04-19T03:55:44.454Z,100875.20
2018-04-19T04:01:48.929Z,100878.73
2018-04-19T04:07:53.396Z,100872.20
2018-04-19T04:13:57.796Z,100866.73
2018-04-19T04:20:19.809Z,100864.42
2018-04-19T04:26:24.210Z,100862.38
2018-04-19T04:32:29.523Z,100860.69
2018-04-19T04:38:33.899Z,100858.36
2018-04-19T04:44:38.302Z,100863.91
2018-04-19T04:50:42.936Z,100864.23
2018-04-19T04:56:47.338Z,100874.80
2018-04-19T05:02:52.544Z,100878.76
2018-04-19T05:08:56.901Z,100877.18
2018-04-19T05:15:01.394Z,100873.30
2018-04-19T05:21:05.885Z,100878.37
2018-04-19T05:27:10.261Z,100890.48
2018-04-19T05:33:15.523Z,100889.94
2018-04-19T05:39:20.332Z,100898.33
2018-04-19T05:45:24.804Z,100896.23
2018-04-19T05:51:29.195Z,100900.47
2018-04-19T05:57:33.588Z,100899.91
2018-04-19T06:03:37.974Z,100903.39
2018-04-19T06:09:42.397Z,100903.55
2018-04-19T06:15:46.766Z,100902.53
2018-04-19T06:21:51.181Z,100894.48
2018-04-19T06:27:55.564Z,100902.13
2018-04-19T06:33:59.951Z,100902.16
2018-04-19T06:40:04.364Z,100906.48
2018-04-19T06:46:08.725Z,100917.69
2018-04-19T06:52:13.304Z,100905.95
2018-04-19T06:58:18.681Z,100893.27
2018-04-19T07:04:24.631Z,100892.53
2018-04-19T07:10:29.111Z,100894.86
2018-04-19T07:16:33.507Z,100888.72
2018-04-19T07:22:37.891Z,100893.70
2018-04-19T07:28:42.483Z,100888.19
2018-04-19T07:34:46.867Z,100887.82
2018-04-19T07:40:51.294Z,100881.02
2018-04-19T07:46:55.796Z,100883.59
2018-04-19T07:53:00.191Z,100883.03
2018-04-19T07:59:04.590Z,100876.27
2018-04-19T08:05:09.733Z,100883.31
2018-04-19T08:11:14.614Z,100879.52
2018-04-19T08:17:18.987Z,100882.25
2018-04-19T08:23:23.367Z,100881.67
2018-04-19T08:29:27.830Z,100872.25
2018-04-19T08:35:32.194Z,100866.31
2018-04-19T08:41:37.761Z,100872.11
2018-04-19T08:47:42.193Z,100871.84
2018-04-19T08:53:46.582Z,100865.81
2018-04-19T08:59:50.975Z,100859.70
2018-04-19T09:05:55.375Z,100862.09
2018-04-19T09:12:00.503Z,100866.29
2018-04-19T09:18:04.872Z,100854.48
2018-04-19T09:24:09.369Z,100856.35
2018-04-19T09:30:13.948Z,100858.30
2018-04-19T09:36:18.351Z,100854.34
2018-04-19T09:42:22.726Z,100843.59
2018-04-19T09:48:27.914Z,100843.22
2018-04-19T09:54:32.326Z,100840.47
2018-04-19T10:00:43.045Z,100839.76
2018-04-19T10:06:48.181Z,100831.61
2018-04-19T10:12:52.555Z,100825.48
2018-04-19T10:18:57.028Z,100824.97
2018-04-19T10:25:01.390Z,100818.48
2018-04-19T10:31:05.777Z,100814.80
2018-04-19T10:37:10.158Z,100809.00
2018-04-19T10:43:14.563Z,100802.56
2018-04-19T10:49:18.996Z,100790.58
2018-04-19T10:55:23.373Z,100792.41
2018-04-19T11:01:27.847Z,100779.66
2018-04-19T11:07:32.243Z,100762.42
2018-04-19T11:13:36.708Z,100770.58
2018-04-19T11:19:41.908Z,100762.31
2018-04-19T11:25:46.356Z,100751.20
2018-04-19T11:31:51.512Z,100748.52
2018-04-19T11:37:55.940Z,100735.45
2018-04-19T11:44:00.303Z,100732.80
2018-04-19T11:50:04.727Z,100723.52
2018-04-19T11:56:09.160Z,100715.19
2018-04-19T12:02:14.375Z,100715.22
2018-04-19T12:08:18.828Z,100715.50
2018-04-19T12:14:23.201Z,100712.28
2018-04-19T12:20:27.588Z,100707.51
2018-04-19T12:26:31.960Z,100709.03
2018-04-19T12:32:36.336Z,100704.08
2018-04-19T12:38:40.786Z,100704.98
2018-04-19T12:44:45.191Z,100697.84
2018-04-19T12:50:49.707Z,100697.92
2018-04-19T12:56:54.136Z,100688.41
2018-04-19T13:02:59.429Z,100683.16
2018-04-19T13:09:04.719Z,100678.97
2018-04-19T13:15:10.952Z,100675.73
2018-04-19T13:21:15.433Z,100669.61
2018-04-19T13:27:19.802Z,100658.34
2018-04-19T13:33:24.239Z,100652.57
2018-04-19T13:39:28.654Z,100643.69
2018-04-19T13:45:33.039Z,100638.31
2018-04-19T13:51:37.421Z,100630.23
2018-04-19T13:57:42.027Z,100626.00
2018-04-19T14:03:46.769Z,100618.66
2018-04-19T14:09:51.145Z,100616.28
2018-04-19T14:15:55.503Z,100610.88
2018-04-19T14:22:00.646Z,100604.55
2018-04-19T14:28:05.049Z,100604.52
2018-04-19T14:34:09.481Z,100602.41
2018-04-19T14:40:14.823Z,100597.59
2018-04-19T14:46:19.182Z,100587.51
2018-04-19T14:52:23.623Z,100586.10
2018-04-19T14:58:27.999Z,100581.11
2018-04-19T15:04:32.375Z,100581.30
2018-04-19T15:10:36.751Z,100575.51
2018-04-19T15:16:41.160Z,100568.58
2018-04-19T15:22:45.657Z,100570.16
2018-04-19T15:28:50.033Z,100570.47
2018-04-19T15:34:54.463Z,100563.70
2018-04-19T15:40:58.842Z,100560.25
2018-04-19T15:47:03.304Z,100557.11
2018-04-19T15:53:07.684Z,100547.38
2018-04-19T15:59:12.111Z,100541.08
2018-04-19T16:05:16.498Z,100541.05
2018-04-19T16:11:21.700Z,100538.87
2018-04-19T16:17:26.032Z,100536.41
2018-04-19T16:23:30.407Z,100530.47
2018-04-19T16:29:34.771Z,100529.64
2018-04-19T16:35:39.141Z,100529.78
2018-04-19T16:41:43.841Z,100530.34
2018-04-19T16:47:48.269Z,100522.56
2018-04-19T16:53:52.720Z,100521.41
2018-04-19T16:59:57.886Z,100518.03
2018-04-19T17:06:02.264Z,100521.02
2018-04-19T17:12:06.664Z,100517.81
2018-04-19T17:18:11.903Z,100509.72
2018-04-19T17:24:16.321Z,100511.05
2018-04-19T17:30:20.762Z,100503.77
2018-04-19T17:36:25.131Z,100507.34
2018-04-19T17:42:29.514Z,100506.60
2018-04-19T17:48:33.894Z,100505.97
2018-04-19T17:54:38.265Z,100505.64
2018-04-19T18:00:42.945Z,100512.34
2018-04-19T18:06:47.339Z,100508.44
2018-04-19T18:12:51.706Z,100515.45
2018-04-19T18:18:56.078Z,100518.36
2018-04-19T18:25:00.475Z,100529.92
2018-04-19T18:31:04.866Z,100529.30
2018-04-19T18:37:10.024Z,100531.32
2018-04-19T18:43:14.451Z,100537.93
2018-04-19T18:49:19.609Z,100545.26
2018-04-19T18:55:23.982Z,100539.95
2018-04-19T19:01:28.368Z,100539.59
2018-04-19T19:07:33.515Z,100547.11
2018-04-19T19:13:37.989Z,100550.22
2018-04-19T19:20:00.173Z,100549.57
2018-04-19T19:26:04.559Z,100551.23
2018-04-19T19:32:08.931Z,100561.30
2018-04-19T19:38:13.369Z,100564.30
2018-04-19T19:44:18.598Z,100565.89
2018-04-19T19:50:22.980Z,100567.30
2018-04-19T19:56:27.371Z,100559.39
2018-04-19T20:02:31.789Z,100565.05
2018-04-19T20:08:36.948Z,100561.19
2018-04-19T20:14:41.339Z,100560.94
2018-04-19T20:20:45.751Z,100557.96
2018-04-19T20:26:51.007Z,100553.77
2018-04-19T20:32:55.388Z,100558.19
2018-04-19T20:38:59.819Z,100552.22
2018-04-19T20:45:04.187Z,100551.45
2018-04-19T20:51:08.582Z,100544.16
2018-04-19T20:57:13.040Z,100539.58
2018-04-19T21:03:17.506Z,100540.67
2018-04-19T21:09:21.915Z,100540.60
2018-04-19T21:15:26.284Z,100536.94
2018-04-19T21:21:30.676Z,100533.18
2018-04-19T21:27:35.115Z,100534.03
2018-04-19T21:33:39.550Z,100526.91
2018-04-19T21:39:44.032Z,100526.45
2018-04-19T21:45:49.198Z,100525.11
2018-04-19T21:51:53.626Z,100527.41
2018-04-19T21:57:57.999Z,100519.75
2018-04-19T22:04:03.206Z,100517.24
2018-04-19T22:10:07.584Z,100522.73
2018-04-19T22:16:12.386Z,100519.40
2018-04-19T22:22:16.765Z,100524.57
2018-04-19T22:28:21.143Z,100523.38
2018-04-19T22:34:25.532Z,100525.52
2018-04-19T22:40:29.960Z,100523.44
2018-04-19T22:46:34.402Z,100512.81
2018-04-19T22:52:38.863Z,100508.88
2018-04-19T22:58:43.354Z,100503.16
2018-04-19T23:04:47.780Z,100498.27
2018-04-19T23:10:52.152Z,100492.70
2018-04-19T23:16:56.625Z,100487.20
2018-04-19T23:23:01.101Z,100495.22
2018-04-19T23:29:05.465Z,100485.64
2018-04-19T23:35:09.911Z,100481.67
2018-04-19T23:41:14.435Z,100475.13
2018-04-19T23:47:18.979Z,100467.42
2018-04-19T23:53:23.389Z,100458.25
2018-04-19T23:59:27.789Z,100451.70
